Time;durP1;ratioP1;P1;durP2;ratioP2;P2;SDS_P1;SDS_P2;PMS_P1;PMS_P2;Temp;Humidity;BMP_temperature;BMP_pressure;BME280_temperature;BME280_humidity;BME280_pressure;Samples;Min_cycle;Max_cycle;Signal;HPM_P1;HPM_P2
2021/10/20 00:00:32;;;;;;;227.43;12.88;;;;;;;9.12;70.11;99933.84;10340152;28;20043;-62
2021/10/20 00:05:34;;;;;;;695.97;25.70;;;;;;;9.00;69.94;99925.81;10343378;28;20042;-62
2021/10/20 00:10:37;;;;;;;429.48;21.40;;;;;;;8.89;70.11;99916.00;10340756;28;20077;-62
2021/10/20 00:15:39;;;;;;;166.52;21.73;;;;;;;8.84;69.98;99913.63;10341425;28;20064;-62
2021/10/20 00:20:41;;;;;;;15.68;10.38;;;;;;;8.56;69.77;99907.31;10341935;28;20056;-62
2021/10/20 00:25:43;;;;;;;13.27;9.43;;;;;;;8.53;70.28;99902.25;10342192;28;20396;-62
2021/10/20 00:30:45;;;;;;;30.70;9.30;;;;;;;8.56;70.18;99891.69;10353434;28;20168;-62
2021/10/20 00:35:47;;;;;;;241.85;18.33;;;;;;;8.54;70.25;99889.16;10354629;28;20502;-62
2021/10/20 00:40:52;;;;;;;444.90;16.27;;;;;;;8.47;70.38;99894.75;10356039;28;20064;-62
2021/10/20 00:45:54;;;;;;;669.47;23.30;;;;;;;8.56;70.29;99871.69;10354674;28;20149;-62
2021/10/20 00:50:56;;;;;;;304.98;11.57;;;;;;;8.47;70.26;99877.34;10355902;28;20049;-62
2021/10/20 00:55:58;;;;;;;473.17;25.90;;;;;;;8.52;70.31;99869.31;10355360;28;20057;-62
2021/10/20 01:01:00;;;;;;;224.40;10.05;;;;;;;8.59;70.50;99852.41;10354451;28;20052;-62
2021/10/20 01:06:04;;;;;;;452.77;16.65;;;;;;;8.63;70.16;99844.34;10354433;28;20498;-62
2021/10/20 01:11:06;;;;;;;549.92;18.80;;;;;;;8.58;69.55;99837.69;10356761;28;20049;-62
2021/10/20 01:16:09;;;;;;;524.97;23.75;;;;;;;8.39;69.83;99835.22;10355550;28;20062;-62
2021/10/20 01:21:28;;;;;;;412.70;26.90;;;;;;;8.10;69.66;99814.19;10357142;28;20061;-62
2021/10/20 01:26:30;;;;;;;101.55;10.85;;;;;;;7.99;70.44;99822.53;10355752;28;20059;-62
2021/10/20 01:31:32;;;;;;;92.32;12.27;;;;;;;7.81;71.08;99810.44;10356865;28;20057;-62
2021/10/20 01:36:33;;;;;;;227.77;29.77;;;;;;;7.80;70.72;99790.53;10354924;28;20056;-62
2021/10/20 01:41:37;;;;;;;504.88;20.67;;;;;;;7.63;70.73;99788.75;10349668;28;20072;-62
2021/10/20 01:46:39;;;;;;;397.35;17.73;;;;;;;7.72;70.82;99775.31;10348900;28;20050;-62
2021/10/20 01:51:40;;;;;;;49.33;7.35;;;;;;;7.76;70.81;99779.44;10349570;28;20041;-62
2021/10/20 01:56:42;;;;;;;16.15;7.70;;;;;;;7.91;70.93;99783.03;10347132;28;20280;-62
2021/10/20 02:01:44;;;;;;;182.07;11.77;;;;;;;8.11;70.76;99763.78;10351434;28;20050;-62
2021/10/20 02:06:46;;;;;;;67.70;9.40;;;;;;;8.26;70.35;99749.97;10356164;28;20077;-62
2021/10/20 02:11:47;;;;;;;84.03;9.60;;;;;;;8.22;70.16;99743.25;10356011;28;20046;-62
2021/10/20 02:16:49;;;;;;;58.17;9.40;;;;;;;8.28;70.54;99735.91;10354436;28;20057;-62
2021/10/20 02:21:51;;;;;;;13.65;6.75;;;;;;;8.37;70.11;99732.84;10355785;28;20046;-62
2021/10/20 02:26:53;;;;;;;38.80;9.00;;;;;;;8.45;69.97;99720.22;10354981;28;20508;-62
2021/10/20 02:31:54;;;;;;;52.95;9.93;;;;;;;8.45;69.64;99717.63;10355273;28;20050;-62
2021/10/20 02:36:56;;;;;;;41.38;10.73;;;;;;;8.48;69.52;99724.44;10354314;28;20405;-62
2021/10/20 02:41:58;;;;;;;13.27;10.38;;;;;;;8.45;69.42;99714.16;10354977;28;20904;-62
2021/10/20 02:47:00;;;;;;;420.65;25.27;;;;;;;8.48;69.22;99693.16;10354483;28;20052;-62
2021/10/20 02:52:01;;;;;;;240.05;14.57;;;;;;;8.44;69.09;99686.44;10353143;28;20054;-62
2021/10/20 02:57:03;;;;;;;103.75;15.80;;;;;;;8.22;69.09;99685.94;10354524;28;20045;-62
2021/10/20 03:02:05;;;;;;;10.82;7.68;;;;;;;8.10;69.30;99687.41;10353090;28;20605;-62
2021/10/20 03:07:07;;;;;;;13.88;9.60;;;;;;;8.19;69.56;99699.09;10348308;28;20434;-62
2021/10/20 03:12:09;;;;;;;17.15;10.30;;;;;;;8.30;69.49;99688.97;10346721;28;20060;-62
2021/10/20 03:17:11;;;;;;;14.13;10.43;;;;;;;8.41;69.41;99694.41;10346572;28;20494;-62
2021/10/20 03:22:13;;;;;;;9.65;8.10;;;;;;;8.37;69.38;99698.09;10346023;28;20528;-61
2021/10/20 03:27:14;;;;;;;12.38;9.85;;;;;;;8.42;69.16;99696.09;10346549;28;20056;-62
2021/10/20 03:32:16;;;;;;;10.25;6.78;;;;;;;8.44;69.14;99704.69;10345933;28;20050;-62
2021/10/20 03:37:18;;;;;;;11.45;9.68;;;;;;;8.39;68.90;99691.91;10345922;28;20046;-62
2021/10/20 03:42:19;;;;;;;7.85;6.32;;;;;;;8.36;69.35;99688.63;10345696;28;20054;-62
2021/10/20 03:47:21;;;;;;;9.68;7.10;;;;;;;8.43;69.36;99684.75;10345605;28;20144;-62
2021/10/20 03:52:23;;;;;;;10.38;8.63;;;;;;;8.44;68.90;99676.03;10345391;28;20049;-62
2021/10/20 03:57:24;;;;;;;17.33;11.23;;;;;;;8.32;68.76;99663.66;10344709;28;20045;-62
2021/10/20 04:02:26;;;;;;;10.88;7.57;;;;;;;8.23;69.10;99671.97;10344183;28;20063;-62
2021/10/20 04:07:28;;;;;;;7.55;6.07;;;;;;;8.09;69.41;99667.47;10345063;28;20054;-62
2021/10/20 04:12:29;;;;;;;6.38;5.20;;;;;;;8.17;69.43;99667.09;10344304;28;20058;-62
2021/10/20 04:17:31;;;;;;;10.55;8.48;;;;;;;8.19;69.57;99663.47;10343123;28;20577;-62
2021/10/20 04:22:33;;;;;;;8.82;7.32;;;;;;;8.22;69.46;99647.66;10344885;28;20060;-62
2021/10/20 04:27:35;;;;;;;7.10;6.30;;;;;;;8.28;69.64;99649.13;10344984;28;20052;-62
2021/10/20 04:32:37;;;;;;;10.95;8.35;;;;;;;8.37;69.18;99652.06;10344005;28;20454;-62
2021/10/20 04:37:39;;;;;;;10.07;7.30;;;;;;;8.22;69.43;99665.91;10344380;28;20589;-62
2021/10/20 04:42:41;;;;;;;7.47;5.88;;;;;;;8.34;69.66;99660.06;10344435;28;20153;-62
2021/10/20 04:47:43;;;;;;;15.35;9.55;;;;;;;8.44;69.04;99635.16;10344153;28;20042;-62
2021/10/20 04:52:44;;;;;;;12.45;9.10;;;;;;;8.40;69.13;99615.41;10344290;28;20045;-62
2021/10/20 04:57:51;;;;;;;10.85;9.57;;;;;;;8.27;69.37;99604.00;10344626;28;20132;-62
2021/10/20 05:02:53;;;;;;;10.85;8.63;;;;;;;8.32;69.38;99586.34;10343095;28;20081;-62
2021/10/20 05:07:59;;;;;;;11.10;7.93;;;;;;;8.41;69.32;99574.53;10343741;28;20133;-62
2021/10/20 05:13:01;;;;;;;10.52;5.88;;;;;;;8.38;69.33;99559.09;10343323;28;20058;-62
2021/10/20 05:18:02;;;;;;;9.52;7.47;;;;;;;8.40;69.27;99554.63;10349069;28;20413;-63
2021/10/20 05:23:04;;;;;;;10.80;6.85;;;;;;;8.32;69.23;99556.84;10351131;28;20061;-63
2021/10/20 05:28:06;;;;;;;11.50;9.18;;;;;;;8.28;69.57;99563.16;10350896;28;20049;-62
2021/10/20 05:33:08;;;;;;;17.83;10.40;;;;;;;8.39;69.55;99550.34;10351120;28;20141;-63
2021/10/20 05:38:10;;;;;;;15.93;12.13;;;;;;;8.49;69.25;99559.31;10350027;28;20054;-63
2021/10/20 05:43:11;;;;;;;13.30;9.82;;;;;;;8.36;69.47;99564.41;10349336;28;20069;-63
2021/10/20 05:48:15;;;;;;;14.63;11.35;;;;;;;8.48;69.67;99555.03;10350584;28;20060;-62
2021/10/20 05:53:17;;;;;;;10.50;8.25;;;;;;;8.65;69.43;99542.72;10349971;28;20052;-63
2021/10/20 05:58:18;;;;;;;11.30;8.38;;;;;;;8.77;69.20;99538.56;10349454;28;20045;-63
2021/10/20 06:03:20;;;;;;;11.73;9.18;;;;;;;8.73;69.47;99530.06;10347400;28;20050;-63
2021/10/20 06:08:22;;;;;;;12.05;10.10;;;;;;;8.80;69.59;99531.41;10349003;28;20871;-63
2021/10/20 06:13:23;;;;;;;13.50;10.15;;;;;;;8.85;69.63;99518.91;10348606;28;20062;-62
2021/10/20 06:18:28;;;;;;;12.00;8.70;;;;;;;8.97;69.63;99506.09;10349016;28;20152;-63
2021/10/20 06:23:32;;;;;;;12.65;9.40;;;;;;;8.95;69.88;99498.38;10348385;28;20823;-63
2021/10/20 06:28:34;;;;;;;13.05;8.85;;;;;;;8.99;69.55;99494.63;10336064;28;20064;-63
2021/10/20 06:33:36;;;;;;;9.93;7.35;;;;;;;9.01;69.37;99500.59;10345942;28;20541;-65
2021/10/20 06:38:37;;;;;;;16.52;10.73;;;;;;;9.17;69.35;99501.34;10347671;28;20143;-67
2021/10/20 06:43:39;;;;;;;11.70;8.93;;;;;;;9.12;69.50;99507.75;10347580;28;20049;-68
2021/10/20 06:48:41;;;;;;;14.82;9.35;;;;;;;9.20;69.61;99508.16;10344227;28;20105;-70
2021/10/20 06:53:43;;;;;;;11.07;9.57;;;;;;;9.30;69.74;99512.69;10338428;28;20046;-70
2021/10/20 06:58:46;;;;;;;9.88;8.68;;;;;;;9.46;69.57;99515.22;10341263;28;20546;-71
2021/10/20 07:03:48;;;;;;;13.02;9.32;;;;;;;9.44;69.91;99512.69;10345051;28;20164;-71
2021/10/20 07:08:49;;;;;;;13.95;11.88;;;;;;;9.57;69.84;99512.78;10345831;28;20057;-69
2021/10/20 07:13:51;;;;;;;14.75;10.90;;;;;;;9.80;69.66;99508.75;10345744;28;20159;-70
2021/10/20 07:18:53;;;;;;;11.60;9.07;;;;;;;10.05;69.08;99504.50;10343674;28;20506;-70
2021/10/20 07:23:55;;;;;;;14.77;10.80;;;;;;;10.17;69.28;99495.88;10345446;28;20053;-70
2021/10/20 07:28:57;;;;;;;13.55;10.70;;;;;;;10.39;69.06;99508.38;10343722;28;20056;-70
2021/10/20 07:34:00;;;;;;;23.67;15.90;;;;;;;10.39;69.26;99511.81;10344962;28;21105;-71
2021/10/20 07:39:03;;;;;;;15.85;12.20;;;;;;;10.33;69.72;99478.25;10343724;28;20155;-70
2021/10/20 07:44:06;;;;;;;21.58;14.30;;;;;;;10.41;69.66;99489.03;10344212;28;20054;-72
2021/10/20 07:49:08;;;;;;;21.10;14.90;;;;;;;10.36;69.50;99456.28;10345346;28;20060;-73
2021/10/20 07:54:09;;;;;;;17.08;12.48;;;;;;;10.36;69.39;99445.81;10336366;28;20459;-70
2021/10/20 07:59:11;;;;;;;18.88;13.00;;;;;;;10.50;69.27;99432.69;10344182;28;20038;-70
2021/10/20 08:04:13;;;;;;;28.88;18.42;;;;;;;10.48;69.08;99429.34;10343840;28;20058;-71
2021/10/20 08:09:15;;;;;;;21.27;14.65;;;;;;;10.47;69.21;99411.97;10342747;28;20065;-71
2021/10/20 08:14:17;;;;;;;16.27;12.48;;;;;;;10.91;68.44;99401.09;10342647;28;20046;-71
2021/10/20 08:19:18;;;;;;;14.25;10.05;;;;;;;11.66;66.85;99392.22;10342680;28;20125;-72
2021/10/20 08:24:20;;;;;;;16.02;10.07;;;;;;;12.01;65.97;99414.03;10341238;28;20060;-71
2021/10/20 08:29:22;;;;;;;24.15;12.57;;;;;;;11.63;66.98;99429.94;10341034;28;20818;-71
2021/10/20 08:34:23;;;;;;;15.25;10.77;;;;;;;11.59;67.47;99443.38;10341544;28;20414;-71
2021/10/20 08:39:25;;;;;;;20.35;13.93;;;;;;;11.53;67.73;99422.84;10342047;28;20120;-71
2021/10/20 08:44:31;;;;;;;23.77;16.60;;;;;;;11.41;68.82;99384.47;10342766;28;20408;-71
2021/10/20 08:49:33;;;;;;;25.17;17.90;;;;;;;11.39;68.74;99407.31;10343351;28;20057;-71
2021/10/20 08:54:36;;;;;;;17.83;10.95;;;;;;;11.52;68.57;99397.63;10348245;28;20057;-71
2021/10/20 08:59:37;;;;;;;13.82;10.85;;;;;;;11.65;68.55;99380.06;10350523;28;20314;-71
2021/10/20 09:04:39;;;;;;;18.83;11.35;;;;;;;11.90;68.18;99369.47;10351074;28;20401;-71
2021/10/20 09:09:41;;;;;;;17.48;11.95;;;;;;;12.26;67.96;99348.38;10351256;28;20060;-71
2021/10/20 09:14:42;;;;;;;27.63;18.23;;;;;;;12.55;67.32;99333.91;10349867;28;20080;-71
2021/10/20 09:19:44;;;;;;;23.42;14.35;;;;;;;12.68;67.75;99305.75;10348698;28;20050;-68
2021/10/20 09:24:46;;;;;;;20.83;14.23;;;;;;;12.89;67.52;99293.56;10349714;28;20056;-69
2021/10/20 09:29:48;;;;;;;24.17;15.40;;;;;;;12.72;67.82;99278.31;10348626;28;20045;-67
2021/10/20 09:34:49;;;;;;;20.73;15.80;;;;;;;12.73;68.22;99297.53;10348647;28;20490;-67
2021/10/20 09:39:51;;;;;;;13.25;10.52;;;;;;;13.07;68.26;99308.84;10349687;28;20538;-67
2021/10/20 09:44:53;;;;;;;14.27;10.90;;;;;;;13.22;67.92;99316.31;10348132;28;20049;-67
2021/10/20 09:49:56;;;;;;;16.08;11.38;;;;;;;13.26;68.32;99309.00;10350019;28;20155;-66
2021/10/20 09:54:58;;;;;;;17.48;12.82;;;;;;;13.38;68.33;99321.16;10347634;28;20522;-67
2021/10/20 10:00:00;;;;;;;20.48;11.60;;;;;;;13.38;68.69;99308.84;10348657;28;20052;-67
2021/10/20 10:05:02;;;;;;;12.65;10.30;;;;;;;13.52;68.67;99305.13;10348046;28;20088;-67
2021/10/20 10:10:04;;;;;;;12.63;9.30;;;;;;;13.98;68.05;99282.00;10348095;28;20084;-67
2021/10/20 10:15:15;;;;;;;10.52;8.20;;;;;;;14.39;66.95;99249.56;10347746;28;20135;-67
2021/10/20 10:20:29;;;;;;;14.02;8.90;;;;;;;14.73;66.50;99247.47;10337403;28;20453;-67
2021/10/20 10:25:40;;;;;;;11.90;9.00;;;;;;;15.13;65.96;99235.91;10343561;28;20057;-67
2021/10/20 10:30:48;;;;;;;13.68;10.00;;;;;;;15.86;63.79;99211.63;10345387;28;20210;-68
2021/10/20 10:36:18;;;;;;;13.32;6.72;;;;;;;16.51;62.20;99199.38;10345468;28;20574;-67
2021/10/20 10:41:27;;;;;;;7.72;6.13;;;;;;;17.03;61.63;99203.91;10347349;28;20206;-67
2021/10/20 10:46:38;;;;;;;8.88;6.03;;;;;;;17.22;60.04;99184.44;10345322;28;20125;-67
2021/10/20 10:51:41;;;;;;;8.45;5.45;;;;;;;17.26;60.32;99172.56;10347307;28;20396;-67
2021/10/20 10:57:08;;;;;;;7.75;5.93;;;;;;;17.19;59.06;99190.84;10344183;28;20421;-67
2021/10/20 11:02:46;;;;;;;8.80;5.80;;;;;;;17.39;58.67;99192.38;10346784;28;20049;-67
2021/10/20 11:07:50;;;;;;;8.02;5.65;;;;;;;17.59;58.56;99199.16;10345361;28;20049;-67
2021/10/20 11:12:56;;;;;;;10.00;5.78;;;;;;;17.75;58.52;99178.09;10345603;28;20149;-67
2021/10/20 11:17:59;;;;;;;7.50;5.70;;;;;;;17.83;58.02;99167.56;10345070;28;20052;-67
2021/10/20 11:23:06;;;;;;;9.23;5.90;;;;;;;18.06;57.46;99169.69;10345026;28;20490;-67
2021/10/20 11:28:09;;;;;;;7.50;5.32;;;;;;;18.47;56.76;99142.44;10344763;28;20392;-68
2021/10/20 11:33:14;;;;;;;11.52;5.82;;;;;;;18.33;55.57;99141.25;10343244;28;20056;-67
2021/10/20 11:38:17;;;;;;;8.90;5.80;;;;;;;18.07;56.80;99123.72;10342843;28;20074;-67
2021/10/20 11:43:26;;;;;;;6.47;5.13;;;;;;;18.06;56.31;99137.94;10344803;28;20088;-68
2021/10/20 11:48:28;;;;;;;7.72;5.43;;;;;;;17.87;57.20;99140.81;10342726;28;20061;-68
2021/10/20 11:53:35;;;;;;;8.05;5.63;;;;;;;17.54;58.00;99123.94;10344073;28;20104;-67
2021/10/20 11:58:38;;;;;;;8.50;5.72;;;;;;;17.46;58.34;99118.59;10342657;28;20073;-67
2021/10/20 12:03:42;;;;;;;9.52;5.78;;;;;;;17.41;58.30;99140.19;10343087;28;20046;-68
2021/10/20 12:08:45;;;;;;;10.38;6.05;;;;;;;17.25;58.72;99132.09;10336426;28;20046;-67
2021/10/20 12:13:49;;;;;;;10.38;5.93;;;;;;;17.10;59.51;99128.31;10343540;28;20050;-68
2021/10/20 12:18:51;;;;;;;9.10;5.93;;;;;;;17.27;59.15;99116.09;10343428;28;20336;-67
2021/10/20 12:23:57;;;;;;;9.60;6.00;;;;;;;17.59;58.33;99081.97;10343021;28;20065;-67
2021/10/20 12:29:08;;;;;;;8.63;5.60;;;;;;;17.60;57.89;99092.41;10342779;28;20053;-67
2021/10/20 12:34:09;;;;;;;7.05;5.15;;;;;;;17.54;58.19;99079.81;10341733;28;20391;-67
2021/10/20 12:39:11;;;;;;;7.72;5.28;;;;;;;17.68;58.00;99060.72;10342931;28;20060;-67
2021/10/20 12:44:13;;;;;;;8.35;5.30;;;;;;;17.60;58.22;99073.06;10341680;28;20062;-67
2021/10/20 12:49:15;;;;;;;9.57;5.28;;;;;;;17.49;58.59;99068.88;10342862;28;20534;-67
2021/10/20 12:54:17;;;;;;;10.13;5.30;;;;;;;17.48;58.37;99061.94;10342663;28;20557;-66
2021/10/20 12:59:20;;;;;;;7.38;5.43;;;;;;;17.37;58.82;99037.56;10343730;28;20092;-67
2021/10/20 13:04:22;;;;;;;10.00;5.45;;;;;;;17.34;59.03;99025.50;10343399;28;20050;-67
2021/10/20 13:09:24;;;;;;;11.05;5.93;;;;;;;17.24;59.59;99023.91;10342243;28;20417;-67
2021/10/20 13:14:29;;;;;;;10.43;5.40;;;;;;;17.23;59.57;99006.38;10341899;28;20498;-67
2021/10/20 13:19:30;;;;;;;12.68;6.10;;;;;;;17.22;59.40;99016.13;10343971;28;20056;-67
2021/10/20 13:24:32;;;;;;;9.88;5.20;;;;;;;17.39;59.43;99006.50;10343590;28;20064;-67
2021/10/20 13:29:34;;;;;;;9.40;5.22;;;;;;;17.36;59.38;99002.38;10343172;28;20054;-67
2021/10/20 13:34:35;;;;;;;7.82;5.80;;;;;;;17.25;60.35;99018.47;10343786;28;20060;-67
2021/10/20 13:39:37;;;;;;;7.80;5.70;;;;;;;17.17;60.23;99039.56;10349546;28;20315;-67
2021/10/20 13:44:40;;;;;;;8.40;6.38;;;;;;;16.93;61.49;99036.75;10350449;28;20050;-66
2021/10/20 13:49:42;;;;;;;10.82;7.85;;;;;;;16.77;62.62;99047.16;10349804;28;20502;-67
2021/10/20 13:54:44;;;;;;;9.88;8.25;;;;;;;16.48;64.12;99062.41;10349837;28;20060;-67
2021/10/20 13:59:46;;;;;;;11.63;8.13;;;;;;;16.42;64.81;99058.53;10350018;28;20240;-67
2021/10/20 14:04:51;;;;;;;12.57;10.00;;;;;;;16.29;65.71;99044.00;10349758;28;20433;-67
2021/10/20 14:09:53;;;;;;;14.05;11.30;;;;;;;16.19;66.18;99031.72;10350391;28;20534;-67
2021/10/20 14:14:55;;;;;;;16.92;12.68;;;;;;;16.16;66.67;99023.28;10348980;28;20597;-66
2021/10/20 14:19:57;;;;;;;16.27;11.77;;;;;;;16.18;66.46;99024.78;10349547;28;20067;-67
2021/10/20 14:24:59;;;;;;;16.38;12.15;;;;;;;16.15;66.73;99025.09;10347934;28;20061;-67
2021/10/20 14:30:00;;;;;;;17.00;12.48;;;;;;;16.14;67.05;99020.78;10348753;28;20057;-67
2021/10/20 14:35:07;;;;;;;15.02;12.18;;;;;;;16.17;67.39;99009.94;10344807;28;20570;-66
2021/10/20 14:40:17;;;;;;;19.33;14.52;;;;;;;16.26;67.04;99013.50;10345775;28;20380;-66
2021/10/20 14:45:20;;;;;;;16.48;12.57;;;;;;;16.22;67.28;99010.31;10346984;28;20156;-67
2021/10/20 14:50:22;;;;;;;15.32;11.75;;;;;;;16.22;67.45;99006.88;10344367;28;20060;-67
2021/10/20 14:55:24;;;;;;;17.90;12.63;;;;;;;16.23;67.59;99003.22;10344306;28;20323;-67
2021/10/20 15:00:26;;;;;;;19.52;13.63;;;;;;;16.22;67.47;98994.47;10346591;28;20136;-66
2021/10/20 15:05:28;;;;;;;19.48;15.77;;;;;;;16.13;67.80;98989.28;10343746;28;20060;-67
2021/10/20 15:10:29;;;;;;;18.67;14.23;;;;;;;16.09;67.80;98993.19;10345598;28;20061;-67
2021/10/20 15:15:32;;;;;;;20.40;14.60;;;;;;;16.02;68.22;98987.69;10345961;28;20068;-67
2021/10/20 15:21:02;;;;;;;14.32;11.88;;;;;;;15.94;68.30;98984.97;10347462;28;20479;-67
2021/10/20 15:26:02;;;;;;;16.83;13.88;;;;;;;15.83;68.56;98968.53;10346113;28;20051;-66
2021/10/20 15:31:04;;;;;;;20.63;14.73;;;;;;;15.82;68.78;98965.03;10346643;28;20054;-67
2021/10/20 15:36:06;;;;;;;18.95;14.70;;;;;;;15.81;68.95;98968.69;10345243;28;20164;-67
2021/10/20 15:41:09;;;;;;;15.10;11.63;;;;;;;15.82;68.63;98965.03;10345532;28;20129;-66
2021/10/20 15:46:12;;;;;;;15.48;12.57;;;;;;;15.85;68.50;98954.22;10346670;28;20050;-67
2021/10/20 15:51:16;;;;;;;16.45;11.32;;;;;;;15.86;68.69;98929.50;10345505;28;20061;-66
2021/10/20 15:56:18;;;;;;;13.98;9.77;;;;;;;15.71;69.07;98943.34;10345571;28;20418;-67
2021/10/20 16:01:19;;;;;;;10.65;9.50;;;;;;;15.74;69.11;98922.78;10345459;28;20041;-67
2021/10/20 16:06:22;;;;;;;10.70;9.10;;;;;;;15.66;68.90;98904.25;10345681;28;20330;-67
2021/10/20 16:11:25;;;;;;;12.70;10.73;;;;;;;15.65;69.02;98899.97;10344820;28;20070;-66
2021/10/20 16:16:27;;;;;;;8.82;7.13;;;;;;;15.59;69.28;98891.81;10345976;28;20056;-67
2021/10/20 16:21:29;;;;;;;8.10;6.75;;;;;;;15.55;69.39;98891.25;10345067;28;20414;-66
2021/10/20 16:26:31;;;;;;;8.43;7.32;;;;;;;15.57;69.49;98880.59;10345648;28;20336;-67
2021/10/20 16:31:33;;;;;;;10.68;7.63;;;;;;;15.62;69.18;98886.22;10344752;28;20064;-67
2021/10/20 16:36:35;;;;;;;8.63;7.03;;;;;;;15.60;68.95;98886.38;10344613;28;20464;-67
2021/10/20 16:41:36;;;;;;;7.82;6.53;;;;;;;15.48;69.40;98887.53;10344842;28;20046;-69
2021/10/20 16:46:38;;;;;;;7.78;6.32;;;;;;;15.43;69.15;98881.88;10342184;28;20096;-66
2021/10/20 16:51:40;;;;;;;11.40;6.65;;;;;;;15.47;69.45;98875.31;10342772;28;20156;-61
2021/10/20 16:56:48;;;;;;;8.23;5.90;;;;;;;15.47;69.08;98862.16;10343288;28;20042;-61
2021/10/20 17:01:50;;;;;;;11.00;6.35;;;;;;;15.41;69.27;98849.56;10342760;28;20079;-61
2021/10/20 17:06:53;;;;;;;12.18;6.68;;;;;;;15.37;69.26;98846.41;10344188;28;20532;-61
2021/10/20 17:11:54;;;;;;;8.80;7.53;;;;;;;15.32;69.23;98832.88;10346132;28;20570;-62
2021/10/20 17:16:59;;;;;;;9.77;6.88;;;;;;;15.28;69.30;98820.97;10343773;28;20077;-61
2021/10/20 17:22:01;;;;;;;8.55;6.32;;;;;;;15.27;69.22;98824.56;10348605;28;20053;-61
2021/10/20 17:27:04;;;;;;;8.80;5.18;;;;;;;15.20;69.28;98820.03;10350162;28;20147;-61
2021/10/20 17:32:05;;;;;;;9.52;5.00;;;;;;;15.19;69.01;98823.63;10347302;28;20056;-61
2021/10/20 17:37:08;;;;;;;10.20;5.00;;;;;;;15.19;69.07;98813.09;10349836;28;20422;-61
2021/10/20 17:42:09;;;;;;;7.25;4.55;;;;;;;15.15;68.79;98814.38;10349002;28;20056;-61
2021/10/20 17:47:11;;;;;;;5.75;4.50;;;;;;;15.16;69.02;98816.84;10349097;28;20045;-61
2021/10/20 17:52:13;;;;;;;8.90;5.45;;;;;;;15.16;68.99;98800.25;10343450;28;20062;-61
2021/10/20 17:57:17;;;;;;;8.00;4.97;;;;;;;15.14;68.99;98794.28;10348177;28;20050;-61
2021/10/20 18:02:19;;;;;;;7.78;5.60;;;;;;;15.13;68.95;98777.66;10348402;28;20133;-61
2021/10/20 18:07:22;;;;;;;8.27;4.95;;;;;;;15.11;69.13;98768.25;10347985;28;20049;-61
2021/10/20 18:12:24;;;;;;;9.82;5.47;;;;;;;15.11;69.02;98773.50;10348452;28;20058;-61
2021/10/20 18:17:27;;;;;;;10.95;5.88;;;;;;;15.07;68.99;98758.97;10346628;28;20046;-61
2021/10/20 18:22:45;;;;;;;11.27;5.93;;;;;;;15.07;69.16;98745.81;10341736;28;20054;-62
2021/10/20 18:27:49;;;;;;;9.27;5.65;;;;;;;15.09;68.97;98742.06;10348233;28;20049;-61
2021/10/20 18:32:53;;;;;;;7.78;6.00;;;;;;;15.12;69.13;98733.06;10347710;28;20045;-61
2021/10/20 18:38:00;;;;;;;10.65;5.60;;;;;;;15.17;68.93;98730.78;10347822;28;20119;-62
2021/10/20 18:43:03;;;;;;;9.35;5.90;;;;;;;15.23;68.70;98719.66;10343733;28;20049;-61
2021/10/20 18:48:06;;;;;;;8.35;4.78;;;;;;;15.23;68.34;98699.41;10346924;28;20048;-61
2021/10/20 18:53:08;;;;;;;8.80;6.07;;;;;;;15.19;68.58;98691.94;10345995;28;20053;-61
2021/10/20 18:58:10;;;;;;;11.50;6.05;;;;;;;15.18;68.38;98680.63;10345210;28;20192;-61
2021/10/20 19:03:12;;;;;;;8.52;6.20;;;;;;;15.20;68.74;98681.28;10346484;28;20096;-62
2021/10/20 19:08:16;;;;;;;8.60;5.50;;;;;;;15.16;68.47;98642.22;10345937;28;20096;-61
2021/10/20 19:13:18;;;;;;;9.27;5.22;;;;;;;15.14;68.10;98658.16;10344774;28;20065;-61
2021/10/20 19:18:20;;;;;;;13.30;6.90;;;;;;;15.10;68.51;98634.94;10346042;28;20049;-61
2021/10/20 19:23:22;;;;;;;8.52;5.13;;;;;;;15.12;68.60;98601.38;10344892;28;20710;-62
2021/10/20 19:28:24;;;;;;;9.82;4.90;;;;;;;15.08;68.89;98613.19;10345654;28;20054;-61
2021/10/20 19:33:27;;;;;;;10.98;6.20;;;;;;;14.99;68.92;98588.59;10343864;28;20050;-61
2021/10/20 19:38:29;;;;;;;10.68;6.05;;;;;;;14.95;68.95;98589.88;10344368;28;20049;-61
2021/10/20 19:43:31;;;;;;;9.95;4.97;;;;;;;14.92;68.75;98563.84;10342718;28;20057;-61
2021/10/20 19:48:35;;;;;;;7.28;5.22;;;;;;;15.04;68.62;98562.63;10343930;28;20042;-61
2021/10/20 19:53:37;;;;;;;10.27;5.45;;;;;;;15.04;68.73;98546.81;10345860;28;20064;-61
2021/10/20 19:58:39;;;;;;;7.15;4.80;;;;;;;15.07;68.64;98522.00;10344548;28;20502;-61
2021/10/20 20:03:41;;;;;;;9.38;5.18;;;;;;;15.13;68.69;98513.47;10343971;28;20062;-61
2021/10/20 20:08:43;;;;;;;6.18;4.68;;;;;;;15.12;68.39;98503.94;10374019;28;20115;-61
2021/10/20 20:13:45;;;;;;;7.47;4.38;;;;;;;15.15;68.26;98493.91;10342818;28;20148;-61
2021/10/20 20:18:47;;;;;;;7.28;4.75;;;;;;;15.14;68.37;98483.56;10344072;28;20144;-62
2021/10/20 20:23:49;;;;;;;7.25;4.30;;;;;;;15.11;68.42;98475.94;10343710;28;20816;-61
2021/10/20 20:28:51;;;;;;;8.02;4.45;;;;;;;15.15;68.51;98491.28;10343515;28;20046;-61
2021/10/20 20:33:53;;;;;;;6.43;4.40;;;;;;;15.24;68.01;98502.69;10343164;28;20370;-61
2021/10/20 20:38:55;;;;;;;7.78;3.85;;;;;;;15.28;68.06;98490.88;10342288;28;20056;-61
2021/10/20 20:43:58;;;;;;;5.60;3.33;;;;;;;15.34;67.65;98463.91;10343438;28;20483;-61
2021/10/20 20:49:00;;;;;;;4.80;3.13;;;;;;;15.37;67.78;98453.03;10352139;28;20576;-61
2021/10/20 20:54:02;;;;;;;5.88;3.67;;;;;;;15.31;67.77;98445.78;10350182;28;20064;-61
2021/10/20 20:59:04;;;;;;;8.18;3.50;;;;;;;15.34;67.75;98448.09;10349552;28;20145;-61
2021/10/20 21:04:06;;;;;;;4.75;2.78;;;;;;;15.45;67.20;98439.91;10351239;28;20054;-61
2021/10/20 21:09:07;;;;;;;5.07;2.88;;;;;;;15.49;67.22;98419.34;10350397;28;20145;-61
2021/10/20 21:14:11;;;;;;;9.30;3.08;;;;;;;15.45;67.48;98391.69;10351215;28;20294;-61
2021/10/20 21:19:14;;;;;;;7.40;2.80;;;;;;;15.45;67.32;98429.38;10350144;28;20528;-61
2021/10/20 21:24:15;;;;;;;6.93;3.03;;;;;;;15.55;67.17;98430.09;10350690;28;20486;-61
2021/10/20 21:29:19;;;;;;;6.07;2.85;;;;;;;15.47;67.27;98393.16;10350388;28;20212;-61
2021/10/20 21:34:21;;;;;;;6.32;2.78;;;;;;;15.52;66.89;98393.53;10349856;28;20421;-61
2021/10/20 21:39:22;;;;;;;5.88;2.90;;;;;;;15.45;67.30;98400.38;10349141;28;20544;-61
2021/10/20 21:44:30;;;;;;;5.10;2.90;;;;;;;15.42;67.06;98369.09;10349293;28;20498;-61
2021/10/20 21:49:32;;;;;;;5.13;2.72;;;;;;;15.51;66.90;98357.63;10347736;28;20494;-61
2021/10/20 21:54:34;;;;;;;6.30;2.83;;;;;;;15.52;66.95;98345.28;10349569;28;20544;-61
2021/10/20 21:59:35;;;;;;;6.47;2.50;;;;;;;15.62;66.56;98320.44;10347416;28;20050;-61
2021/10/20 22:04:37;;;;;;;5.35;2.80;;;;;;;15.62;66.63;98323.06;10348580;28;20050;-61
2021/10/20 22:09:42;;;;;;;4.82;2.80;;;;;;;15.55;66.53;98266.72;10348276;28;20057;-61
2021/10/20 22:14:44;;;;;;;5.63;2.95;;;;;;;15.51;66.48;98307.56;10348406;28;20172;-61
2021/10/20 22:19:46;;;;;;;4.53;2.85;;;;;;;15.44;66.66;98293.38;10348000;28;20579;-61
2021/10/20 22:24:48;;;;;;;4.82;3.03;;;;;;;15.39;67.12;98274.56;10348177;28;20056;-61
2021/10/20 22:29:49;;;;;;;6.30;3.05;;;;;;;15.41;66.84;98257.63;10347960;28;20077;-61
2021/10/20 22:34:51;;;;;;;4.82;2.80;;;;;;;15.40;66.65;98250.72;10347543;28;20537;-61
2021/10/20 22:39:53;;;;;;;6.22;2.90;;;;;;;15.40;66.35;98227.03;10347003;28;20045;-61
2021/10/20 22:44:54;;;;;;;5.57;3.03;;;;;;;15.35;66.63;98208.22;10347128;28;20530;-61
2021/10/20 22:49:56;;;;;;;8.57;3.00;;;;;;;15.37;66.39;98177.28;10346891;28;20049;-61
2021/10/20 22:54:58;;;;;;;7.97;3.50;;;;;;;15.46;66.22;98140.41;10347327;28;20054;-61
2021/10/20 22:59:59;;;;;;;8.15;2.80;;;;;;;15.38;66.22;98128.06;10346486;28;20057;-61
2021/10/20 23:05:01;;;;;;;8.05;2.75;;;;;;;15.37;65.90;98127.22;10346586;28;20054;-61
2021/10/20 23:10:05;;;;;;;5.18;3.05;;;;;;;15.41;65.87;98127.72;10346170;28;20053;-61
2021/10/20 23:15:06;;;;;;;3.42;2.45;;;;;;;15.36;65.67;98135.31;10346152;28;20058;-61